Time;durP1;ratioP1;P1;durP2;ratioP2;P2;SDS_P1;SDS_P2;PMS_P1;PMS_P2;Temp;Humidity;BMP_temperature;BMP_pressure;BME280_temperature;BME280_humidity;BME280_pressure;Samples;Min_cycle;Max_cycle;Signal;HPM_P1;HPM_P2
2023/10/13 00:01:24;;;;;;;0.90;0.90;;;18.60;99.90;;;;;;5027450;28;20075;-84
2023/10/13 00:03:52;;;;;;;3.25;3.00;;;18.80;99.90;;;;;;5031916;28;20443;-83
2023/10/13 00:06:18;;;;;;;0.10;0.10;;;18.70;99.90;;;;;;5031582;28;20108;-83
2023/10/13 00:08:45;;;;;;;0.10;0.10;;;18.50;99.90;;;;;;5033504;28;20041;-83
2023/10/13 00:11:15;;;;;;;0.00;0.00;;;18.60;99.90;;;;;;5031707;28;20026;-84
2023/10/13 00:13:42;;;;;;;0.00;0.00;;;18.70;99.90;;;;;;5033391;28;20014;-84
2023/10/13 00:16:17;;;;;;;9.23;1.13;;;18.90;99.90;;;;;;5033251;28;20029;-84
2023/10/13 00:18:43;;;;;;;0.10;0.10;;;18.70;99.90;;;;;;5032973;28;20175;-84
2023/10/13 00:21:13;;;;;;;1.10;0.50;;;18.60;99.90;;;;;;5023236;28;20378;-84
2023/10/13 00:23:53;;;;;;;0.00;0.00;;;18.60;99.90;;;;;;5028825;28;20082;-84
2023/10/13 00:26:25;;;;;;;0.00;0.00;;;18.70;99.90;;;;;;5032995;28;20030;-84
2023/10/13 00:29:08;;;;;;;0.65;0.65;;;18.70;99.90;;;;;;5032923;28;20044;-84
2023/10/13 00:31:42;;;;;;;0.00;0.00;;;18.60;99.90;;;;;;5033118;28;20037;-84
2023/10/13 00:34:19;;;;;;;0.68;0.68;;;18.60;99.90;;;;;;5031931;28;20025;-85
2023/10/13 00:39:29;;;;;;;0.00;0.00;;;18.60;99.90;;;;;;5032372;28;20041;-84
2023/10/13 00:42:06;;;;;;;0.68;0.68;;;18.70;99.90;;;;;;5032740;28;20033;-83
2023/10/13 00:45:04;;;;;;;0.00;0.00;;;18.70;99.90;;;;;;5031851;28;20103;-83
2023/10/13 00:50:19;;;;;;;9.18;0.65;;;18.70;99.90;;;;;;5028124;28;20120;-84
2023/10/13 00:52:50;;;;;;;5.40;0.70;;;18.90;99.90;;;;;;5032547;28;20438;-83
2023/10/13 00:55:22;;;;;;;0.00;0.00;;;18.80;99.90;;;;;;5031604;28;20057;-84
2023/10/13 00:58:02;;;;;;;0.05;0.05;;;18.80;99.90;;;;;;5032676;28;20536;-84
2023/10/13 01:00:31;;;;;;;6.88;0.45;;;18.70;99.90;;;;;;5031438;28;20030;-84
2023/10/13 01:02:57;;;;;;;1.83;0.95;;;18.60;99.90;;;;;;5031019;28;20070;-85
2023/10/13 01:05:24;;;;;;;0.00;0.00;;;18.70;99.90;;;;;;5032705;28;20377;-84
2023/10/13 01:07:54;;;;;;;0.00;0.00;;;18.90;99.90;;;;;;5014651;28;20177;-84
2023/10/13 01:10:25;;;;;;;0.10;0.10;;;18.90;99.90;;;;;;5029774;28;20087;-84
2023/10/13 01:12:52;;;;;;;0.00;0.00;;;18.90;99.90;;;;;;5002532;28;20022;-83
2023/10/13 01:15:21;;;;;;;1.35;0.45;;;18.90;99.90;;;;;;5010566;28;20172;-84
2023/10/13 01:17:48;;;;;;;0.20;0.20;;;18.80;99.90;;;;;;5015203;28;20478;-84
2023/10/13 01:20:24;;;;;;;0.15;0.15;;;19.00;99.90;;;;;;5015480;28;20026;-84
2023/10/13 01:22:55;;;;;;;0.08;0.08;;;18.70;99.90;;;;;;5016752;28;20092;-84
2023/10/13 01:25:27;;;;;;;0.25;0.20;;;18.70;99.90;;;;;;5017166;28;20022;-85
2023/10/13 01:27:53;;;;;;;0.32;0.32;;;18.80;99.90;;;;;;5003964;28;20027;-84
2023/10/13 01:30:26;;;;;;;1.95;1.00;;;18.80;99.90;;;;;;5013635;28;21722;-84
2023/10/13 01:32:53;;;;;;;0.00;0.00;;;18.80;99.90;;;;;;5007923;28;20381;-84
2023/10/13 01:35:25;;;;;;;1.80;0.63;;;18.80;99.90;;;;;;5016424;28;20048;-83
2023/10/13 01:37:51;;;;;;;;;;;18.70;99.90;;;;;;5007922;28;20044;-84
2023/10/13 01:40:20;;;;;;;1.85;0.55;;;18.60;99.90;;;;;;5016195;28;19995;-85
2023/10/13 01:42:46;;;;;;;0.00;0.00;;;18.70;99.90;;;;;;5016244;28;20030;-83
2023/10/13 01:45:14;;;;;;;1.23;0.63;;;18.70;99.90;;;;;;5016451;28;20053;-84
2023/10/13 01:47:41;;;;;;;0.40;0.10;;;18.80;99.90;;;;;;5016135;28;20097;-84
2023/10/13 01:50:18;;;;;;;0.00;0.00;;;18.90;99.90;;;;;;5009985;28;20390;-84
2023/10/13 01:52:44;;;;;;;2.38;0.88;;;19.10;99.90;;;;;;5014086;28;20030;-85
2023/10/13 01:55:14;;;;;;;0.55;0.55;;;19.00;99.90;;;;;;5014934;28;20028;-85
2023/10/13 01:57:42;;;;;;;0.22;0.22;;;18.90;99.90;;;;;;5002214;28;20105;-84
2023/10/13 02:00:18;;;;;;;0.00;0.00;;;18.90;99.90;;;;;;5028894;28;20013;-84
2023/10/13 02:02:49;;;;;;;0.17;0.17;;;18.80;99.90;;;;;;5015814;28;20079;-84
2023/10/13 02:05:17;;;;;;;0.82;0.77;;;19.00;99.90;;;;;;5015942;28;20029;-84
2023/10/13 02:07:45;;;;;;;0.35;0.35;;;19.10;99.90;;;;;;5015689;28;20026;-83
2023/10/13 02:10:12;;;;;;;0.63;0.43;;;19.10;99.90;;;;;;5012393;28;20033;-83
2023/10/13 02:12:45;;;;;;;0.10;0.10;;;19.00;99.90;;;;;;5034537;28;20025;-83
2023/10/13 02:15:26;;;;;;;0.30;0.30;;;19.10;99.90;;;;;;5034247;28;20018;-83
2023/10/13 02:17:54;;;;;;;0.30;0.17;;;19.00;99.90;;;;;;5034116;28;20375;-83
2023/10/13 02:20:30;;;;;;;0.40;0.40;;;19.00;99.90;;;;;;5033648;28;20029;-84
2023/10/13 02:22:56;;;;;;;11.40;0.70;;;19.00;99.90;;;;;;5034067;28;20041;-83
2023/10/13 02:28:13;;;;;;;0.17;0.17;;;19.20;99.90;;;;;;5033389;28;20033;-83
2023/10/13 02:30:49;;;;;;;0.68;0.52;;;19.30;99.90;;;;;;5035053;28;20064;-83
2023/10/13 02:33:21;;;;;;;0.10;0.10;;;19.20;99.90;;;;;;5017545;28;20041;-83
2023/10/13 02:35:54;;;;;;;0.45;0.45;;;19.30;99.90;;;;;;5035087;28;20079;-84
2023/10/13 02:41:08;;;;;;;0.10;0.10;;;19.40;99.90;;;;;;5033951;28;20141;-83
2023/10/13 02:43:35;;;;;;;0.45;0.45;;;19.50;99.90;;;;;;5035125;28;20449;-84
2023/10/13 02:46:02;;;;;;;0.63;0.63;;;19.60;99.90;;;;;;5035273;28;20078;-85
2023/10/13 02:49:14;;;;;;;1.60;0.95;;;19.70;99.90;;;;;;5034830;28;20105;-83
2023/10/13 02:51:15;;;;;;;0.32;0.32;;;19.60;99.90;;;;;;5026540;28;20033;-83
2023/10/13 02:53:52;;;;;;;2.15;1.40;;;19.50;99.90;;;;;;5033563;28;20075;-82
2023/10/13 02:56:22;;;;;;;2.83;1.40;;;19.60;99.90;;;;;;5033685;28;20025;-82
2023/10/13 02:59:04;;;;;;;0.30;0.30;;;19.50;99.90;;;;;;5034760;28;20501;-82
2023/10/13 03:01:33;;;;;;;5.68;1.95;;;19.60;99.90;;;;;;5033393;28;20048;-82
2023/10/13 03:04:00;;;;;;;14.50;3.80;;;19.60;99.90;;;;;;5033114;28;20029;-82
2023/10/13 03:06:33;;;;;;;2.95;1.75;;;19.70;99.90;;;;;;5034645;28;20052;-81
2023/10/13 03:09:14;;;;;;;0.98;0.98;;;19.70;99.90;;;;;;5033248;28;20803;-81
2023/10/13 03:11:48;;;;;;;0.55;0.55;;;19.80;99.90;;;;;;5034427;28;20037;-81
2023/10/13 03:14:31;;;;;;;6.13;2.83;;;19.80;99.90;;;;;;5034423;28;20116;-80
2023/10/13 03:17:14;;;;;;;2.33;0.98;;;19.90;99.90;;;;;;5034295;28;20092;-80
2023/10/13 03:19:48;;;;;;;1.20;1.08;;;19.90;99.90;;;;;;5032869;28;20100;-81
2023/10/13 03:22:16;;;;;;;1.73;1.63;;;20.00;99.90;;;;;;5033153;28;20125;-81
2023/10/13 03:24:49;;;;;;;5.00;3.83;;;20.10;99.90;;;;;;5034301;28;20041;-82
2023/10/13 03:27:17;;;;;;;1.70;0.75;;;20.00;99.90;;;;;;5033091;28;20083;-82
2023/10/13 03:29:45;;;;;;;9.80;4.03;;;20.10;99.90;;;;;;5033008;28;20049;-80
2023/10/13 03:32:11;;;;;;;1.50;1.30;;;20.10;99.90;;;;;;5033936;28;20029;-82
2023/10/13 03:34:52;;;;;;;7.80;1.20;;;20.10;99.90;;;;;;5033560;28;20017;-81
2023/10/13 03:37:38;;;;;;;4.28;2.47;;;20.20;99.90;;;;;;5034034;28;20033;-82
2023/10/13 03:43:07;;;;;;;2.00;1.33;;;20.20;99.90;;;;;;5032524;28;20040;-81
2023/10/13 03:45:41;;;;;;;3.50;2.70;;;20.40;99.90;;;;;;5024069;28;20054;-81
2023/10/13 03:51:14;;;;;;;3.10;1.98;;;20.40;99.90;;;;;;5032515;28;20478;-81
2023/10/13 03:53:52;;;;;;;2.53;2.05;;;20.30;99.90;;;;;;5032580;28;20116;-80
2023/10/13 03:56:28;;;;;;;3.45;1.67;;;20.20;99.90;;;;;;5015878;28;20037;-81
2023/10/13 03:59:04;;;;;;;11.95;3.97;;;20.20;99.90;;;;;;5033681;28;20042;-79
2023/10/13 04:01:43;;;;;;;2.00;1.35;;;20.20;99.90;;;;;;5033089;28;20036;-79
2023/10/13 04:04:11;;;;;;;0.82;0.77;;;20.20;99.90;;;;;;5033582;28;20038;-79
2023/10/13 04:10:56;;;;;;;1.77;1.58;;;20.30;99.90;;;;;;5033575;28;20036;-79
2023/10/13 04:14:19;;;;;;;5.30;1.77;;;20.30;99.90;;;;;;5032019;28;20241;-79
2023/10/13 04:17:40;;;;;;;8.95;3.47;;;20.40;99.90;;;;;;5032702;28;20072;-80
2023/10/13 04:33:35;;;;;;;0.20;0.17;;;20.70;99.90;;;;;;5033255;28;20036;-81
2023/10/13 04:36:14;;;;;;;9.07;5.78;;;20.50;99.90;;;;;;5031816;28;20091;-82
2023/10/13 04:39:16;;;;;;;11.38;3.70;;;20.50;99.90;;;;;;5015401;28;20390;-81
2023/10/13 04:41:43;;;;;;;0.43;0.43;;;20.40;99.90;;;;;;5031091;28;20049;-82
2023/10/13 04:49:35;;;;;;;1.08;0.75;;;20.50;99.90;;;;;;5032899;28;20021;-82
2023/10/13 05:51:43;;;;;;;3.65;3.30;;;19.90;99.90;;;;;;5011978;28;20479;-84
2023/10/13 06:29:56;;;;;;;5.80;2.10;;;20.10;99.90;;;;;;5009501;28;20100;-84
2023/10/13 06:32:26;;;;;;;4.15;2.08;;;20.10;99.90;;;;;;5016798;28;20026;-85
2023/10/13 06:34:58;;;;;;;14.65;3.45;;;20.10;99.90;;;;;;5018314;28;20459;-85
2023/10/13 06:37:30;;;;;;;8.48;1.65;;;20.00;99.90;;;;;;5017421;28;20037;-84
2023/10/13 06:40:12;;;;;;;2.53;1.95;;;20.00;99.90;;;;;;5018301;28;20041;-85
2023/10/13 06:42:42;;;;;;;1.92;1.70;;;20.00;99.90;;;;;;4995008;28;20038;-84
2023/10/13 06:45:11;;;;;;;2.45;1.35;;;20.00;99.90;;;;;;5015532;28;20026;-84
2023/10/13 06:47:42;;;;;;;0.10;0.10;;;20.00;99.90;;;;;;5015195;28;20026;-85
2023/10/13 06:50:15;;;;;;;12.53;8.23;;;20.00;99.90;;;;;;5015395;28;20022;-85
2023/10/13 06:52:46;;;;;;;1.42;0.68;;;20.00;99.90;;;;;;5014471;28;20741;-85
2023/10/13 06:55:17;;;;;;;2.65;1.40;;;20.00;99.90;;;;;;5013044;28;20033;-86
2023/10/13 06:57:46;;;;;;;6.18;2.83;;;19.80;99.90;;;;;;5015528;28;20034;-85
2023/10/13 07:00:29;;;;;;;3.70;2.60;;;19.80;99.90;;;;;;5015406;28;20029;-85
2023/10/13 07:03:06;;;;;;;13.07;3.20;;;19.70;99.90;;;;;;5015020;28;20021;-83
2023/10/13 07:05:41;;;;;;;2.00;0.20;;;19.80;99.90;;;;;;5014106;28;20097;-85
2023/10/13 07:08:08;;;;;;;10.90;3.78;;;19.80;99.90;;;;;;5007271;28;20101;-86
2023/10/13 07:10:48;;;;;;;7.47;2.55;;;19.70;99.90;;;;;;5023605;28;20048;-86
2023/10/13 07:13:14;;;;;;;9.70;3.53;;;19.70;99.90;;;;;;5011193;28;20481;-85
2023/10/13 07:15:47;;;;;;;3.38;1.50;;;19.70;99.90;;;;;;5016929;28;20113;-84
2023/10/13 07:18:22;;;;;;;2.30;1.08;;;19.70;99.90;;;;;;5016500;28;20485;-84
2023/10/13 07:20:48;;;;;;;5.43;1.50;;;19.80;99.90;;;;;;5015017;28;20105;-85
2023/10/13 07:23:17;;;;;;;3.33;1.55;;;19.70;99.90;;;;;;5014082;28;20540;-86
2023/10/13 07:26:02;;;;;;;6.32;3.33;;;19.70;99.90;;;;;;5012106;28;20014;-78
2023/10/13 07:28:35;;;;;;;20.40;3.03;;;19.70;99.90;;;;;;5013961;28;20083;-84
2023/10/13 07:33:31;;;;;;;6.05;2.60;;;19.70;99.90;;;;;;5013602;28;20034;-85
2023/10/13 07:36:09;;;;;;;7.30;2.38;;;19.80;99.90;;;;;;5013398;28;20025;-84
2023/10/13 07:38:37;;;;;;;6.65;2.83;;;19.70;99.90;;;;;;5013318;28;20437;-84
2023/10/13 07:41:09;;;;;;;25.70;3.30;;;19.80;99.90;;;;;;5013145;28;20064;-85
2023/10/13 07:43:39;;;;;;;8.18;2.97;;;19.90;99.90;;;;;;5013335;28;20025;-83
2023/10/13 07:46:12;;;;;;;7.20;2.63;;;19.90;99.90;;;;;;5013173;28;20489;-84
2023/10/13 07:48:40;;;;;;;5.57;1.50;;;19.90;99.90;;;;;;5013438;28;20022;-85
2023/10/13 07:51:15;;;;;;;5.70;1.55;;;20.10;99.90;;;;;;5013392;28;20022;-84
2023/10/13 07:53:43;;;;;;;22.48;7.05;;;20.10;99.90;;;;;;5028479;28;20029;-83
2023/10/13 07:56:12;;;;;;;0.77;0.77;;;20.10;99.90;;;;;;5013510;28;20061;-84
2023/10/13 07:59:00;;;;;;;2.80;1.73;;;20.20;99.90;;;;;;5013926;28;20034;-83
2023/10/13 08:01:28;;;;;;;17.08;4.22;;;20.20;99.90;;;;;;5013921;28;20072;-82
2023/10/13 08:04:11;;;;;;;3.90;2.88;;;20.20;99.90;;;;;;5013636;28;20029;-83
2023/10/13 08:06:41;;;;;;;3.40;0.98;;;20.20;99.90;;;;;;5013305;28;20026;-78
2023/10/13 08:09:09;;;;;;;1.40;0.68;;;20.30;99.90;;;;;;5012815;28;20037;-79
2023/10/13 08:11:38;;;;;;;8.13;2.83;;;20.20;99.90;;;;;;5029661;28;20109;-79
2023/10/13 08:14:28;;;;;;;2.42;1.75;;;20.30;99.90;;;;;;5033492;28;20436;-78
2023/10/13 08:16:59;;;;;;;12.43;2.55;;;20.20;99.90;;;;;;5033071;28;20029;-79
2023/10/13 08:19:27;;;;;;;8.43;3.37;;;20.30;99.90;;;;;;5033455;28;20041;-79
2023/10/13 08:21:59;;;;;;;4.10;1.38;;;20.40;99.90;;;;;;5032086;28;20061;-78
2023/10/13 08:24:55;;;;;;;0.25;0.25;;;20.30;99.90;;;;;;5033170;28;20466;-79
2023/10/13 08:27:48;;;;;;;4.97;1.92;;;20.30;99.90;;;;;;5032873;28;20031;-79
2023/10/13 08:30:28;;;;;;;1.55;1.23;;;20.30;99.90;;;;;;5029808;28;20037;-79
2023/10/13 08:32:54;;;;;;;1.40;1.00;;;20.40;99.90;;;;;;4993835;28;20042;-78
2023/10/13 08:40:43;;;;;;;11.95;1.75;;;20.50;99.90;;;;;;5013146;28;20030;-78
2023/10/13 08:43:13;;;;;;;6.45;2.28;;;20.50;99.90;;;;;;5003839;28;20021;-78
2023/10/13 09:01:48;;;;;;;11.85;3.40;;;20.60;99.90;;;;;;5012950;28;20026;-78
2023/10/13 09:04:21;;;;;;;16.70;3.83;;;20.70;99.90;;;;;;5011485;28;20073;-78
2023/10/13 09:09:34;;;;;;;12.93;3.58;;;20.70;99.90;;;;;;5012810;28;20034;-78
2023/10/13 09:12:25;;;;;;;5.75;1.42;;;20.80;99.90;;;;;;5005187;28;20548;-78
2023/10/13 09:14:57;;;;;;;3.13;1.70;;;20.80;99.90;;;;;;5032724;28;20481;-79
2023/10/13 09:20:19;;;;;;;4.85;1.40;;;20.80;99.90;;;;;;5018578;28;20034;-78
2023/10/13 09:22:54;;;;;;;7.82;3.15;;;20.90;99.90;;;;;;5032478;28;20026;-79
2023/10/13 09:25:23;;;;;;;1.30;0.52;;;21.10;99.90;;;;;;5032667;28;20099;-79
2023/10/13 09:27:53;;;;;;;4.57;1.48;;;21.10;99.90;;;;;;5032547;28;20030;-79
2023/10/13 09:30:20;;;;;;;7.32;2.67;;;21.10;99.90;;;;;;5018616;28;20065;-79
2023/10/13 09:32:48;;;;;;;24.00;1.83;;;21.10;99.90;;;;;;5032352;28;20033;-79
2023/10/13 09:35:18;;;;;;;24.65;3.67;;;20.90;99.90;;;;;;5032241;28;20057;-79
2023/10/13 09:37:48;;;;;;;3.90;1.00;;;20.90;99.90;;;;;;5032063;28;20054;-79
2023/10/13 09:43:04;;;;;;;7.85;1.23;;;20.80;99.90;;;;;;5034781;28;20034;-79
2023/10/13 09:45:43;;;;;;;3.15;1.42;;;20.90;99.90;;;;;;5036245;28;20029;-78
2023/10/13 09:48:21;;;;;;;13.85;1.65;;;20.80;99.90;;;;;;5036108;28;20382;-78
2023/10/13 09:50:48;;;;;;;5.85;1.73;;;20.80;99.90;;;;;;5035855;28;20021;-78
2023/10/13 09:53:19;;;;;;;5.38;3.72;;;20.90;99.90;;;;;;5034720;28;20494;-78
2023/10/13 09:55:49;;;;;;;5.22;1.10;;;20.90;99.90;;;;;;5035962;28;20033;-78
2023/10/13 09:58:18;;;;;;;3.50;1.90;;;21.00;99.90;;;;;;5035792;28;20040;-78
2023/10/13 10:00:58;;;;;;;4.80;3.45;;;20.90;99.90;;;;;;5035860;28;20022;-78
2023/10/13 10:03:39;;;;;;;10.82;2.30;;;20.90;99.90;;;;;;5025570;28;20037;-78
2023/10/13 10:06:17;;;;;;;14.02;2.78;;;20.90;99.90;;;;;;5035348;28;20028;-78
2023/10/13 10:08:50;;;;;;;11.50;2.95;;;20.90;99.90;;;;;;5035645;28;20065;-78
2023/10/13 10:11:47;;;;;;;0.77;0.77;;;20.90;99.90;;;;;;5035558;28;20113;-78
2023/10/13 10:14:19;;;;;;;2.20;1.85;;;20.90;99.90;;;;;;5034477;28;20037;-78
2023/10/13 10:17:10;;;;;;;3.83;2.15;;;20.90;99.90;;;;;;5035461;28;20474;-78
2023/10/13 10:20:11;;;;;;;9.33;2.33;;;20.80;99.90;;;;;;5035360;28;20030;-78
2023/10/13 10:22:37;;;;;;;17.02;1.17;;;20.90;99.90;;;;;;5020846;28;20045;-78
2023/10/13 10:25:21;;;;;;;11.55;2.40;;;20.90;99.90;;;;;;5035206;28;20025;-78
2023/10/13 10:27:56;;;;;;;10.23;2.08;;;20.90;99.90;;;;;;5035512;28;20113;-78
2023/10/13 10:30:33;;;;;;;2.97;1.42;;;20.70;99.90;;;;;;5035198;28;20104;-79
2023/10/13 10:32:59;;;;;;;2.85;1.08;;;20.80;99.90;;;;;;5035155;28;20072;-79
2023/10/13 10:35:32;;;;;;;7.05;2.85;;;20.80;99.90;;;;;;5035208;28;20029;-79
2023/10/13 10:38:32;;;;;;;9.02;2.00;;;20.70;99.90;;;;;;5035222;28;20041;-78
2023/10/13 10:41:04;;;;;;;2.97;1.55;;;20.90;99.90;;;;;;5035242;28;20057;-79
2023/10/13 10:43:42;;;;;;;1.45;1.33;;;20.70;99.90;;;;;;5035314;28;20088;-78
2023/10/13 10:46:16;;;;;;;0.25;0.25;;;20.80;99.90;;;;;;5033885;28;20392;-78
2023/10/13 10:48:44;;;;;;;5.03;2.67;;;20.70;99.90;;;;;;5016899;28;20382;-78
2023/10/13 10:51:21;;;;;;;3.75;2.25;;;20.70;99.90;;;;;;5035035;28;20052;-78
2023/10/13 10:53:52;;;;;;;8.55;2.40;;;20.70;99.90;;;;;;5035302;28;20029;-78
2023/10/13 10:56:24;;;;;;;1.58;0.80;;;20.80;99.90;;;;;;5008757;28;20056;-78
2023/10/13 10:58:55;;;;;;;1.73;1.60;;;20.90;99.90;;;;;;5035117;28;20040;-78
2023/10/13 11:01:25;;;;;;;9.35;1.17;;;20.90;99.90;;;;;;5034016;28;20462;-78
2023/10/13 11:04:08;;;;;;;6.60;1.98;;;21.00;99.90;;;;;;5036444;28;20021;-77
2023/10/13 11:06:45;;;;;;;0.68;0.68;;;21.00;99.90;;;;;;5036663;28;20145;-79
2023/10/13 11:09:18;;;;;;;2.72;1.85;;;21.10;99.90;;;;;;5036011;28;20029;-79
2023/10/13 11:11:53;;;;;;;3.70;2.38;;;21.20;99.90;;;;;;5034596;28;20029;-79
2023/10/13 11:14:29;;;;;;;13.40;3.60;;;21.30;99.90;;;;;;5034577;28;20052;-79
2023/10/13 11:17:05;;;;;;;10.50;2.95;;;21.30;99.90;;;;;;5034058;28;20489;-78
2023/10/13 11:19:39;;;;;;;0.75;0.45;;;21.30;99.90;;;;;;5033432;28;20026;-79
2023/10/13 11:25:11;;;;;;;4.65;1.90;;;21.30;99.90;;;;;;5029229;28;20037;-78
2023/10/13 11:30:19;;;;;;;8.88;3.80;;;21.40;99.90;;;;;;5033946;28;20038;-78
2023/10/13 11:32:56;;;;;;;7.85;3.10;;;21.50;99.90;;;;;;5022967;28;20084;-77
2023/10/13 11:35:25;;;;;;;5.00;2.78;;;21.40;99.90;;;;;;5022349;28;20105;-78
2023/10/13 11:38:03;;;;;;;11.68;3.08;;;21.50;99.90;;;;;;5029643;28;20548;-77
2023/10/13 11:41:00;;;;;;;6.82;2.63;;;21.40;99.90;;;;;;5032748;28;20038;-77
2023/10/13 11:48:36;;;;;;;4.07;1.95;;;21.60;99.90;;;;;;5033884;28;20087;-77
2023/10/13 11:51:07;;;;;;;6.70;2.55;;;21.60;99.90;;;;;;5022799;28;20108;-77
2023/10/13 11:53:34;;;;;;;6.72;1.55;;;21.70;99.90;;;;;;5034012;28;20033;-78
2023/10/13 11:56:01;;;;;;;4.88;2.75;;;21.80;99.90;;;;;;5033912;28;20446;-77
2023/10/13 11:58:30;;;;;;;2.45;2.20;;;21.90;99.90;;;;;;5026121;28;20026;-77
2023/10/13 12:01:20;;;;;;;0.52;0.52;;;22.00;99.90;;;;;;5016048;28;20124;-77
2023/10/13 12:09:32;;;;;;;7.57;3.30;;;21.90;99.90;;;;;;5012576;28;20038;-78
2023/10/13 12:12:00;;;;;;;4.13;1.75;;;22.00;99.90;;;;;;5017935;28;20041;-77
2023/10/13 12:14:31;;;;;;;2.03;1.48;;;22.00;99.90;;;;;;5018982;28;20029;-77
2023/10/13 12:17:03;;;;;;;;;;;22.20;99.90;;;;;;5026411;28;20042;-77
2023/10/13 12:19:29;;;;;;;;;;;22.20;99.90;;;;;;5030057;28;19940;-77
2023/10/13 12:21:57;;;;;;;7.55;2.78;;;22.20;99.90;;;;;;5030540;28;20702;-77
2023/10/13 12:27:18;;;;;;;12.07;3.78;;;22.40;99.90;;;;;;5023102;28;20025;-77
2023/10/13 12:29:56;;;;;;;25.45;3.10;;;22.40;99.90;;;;;;5028108;28;20065;-78
2023/10/13 12:32:24;;;;;;;8.60;3.33;;;22.50;99.90;;;;;;5026265;28;20030;-76
2023/10/13 12:38:26;;;;;;;27.27;3.45;;;22.80;99.90;;;;;;5022656;28;20060;-76
2023/10/13 12:54:04;;;;;;;4.20;2.45;;;22.80;99.90;;;;;;5028577;28;20037;-77
2023/10/13 12:56:30;;;;;;;4.32;1.75;;;22.80;99.90;;;;;;5025604;28;20025;-77
2023/10/13 12:58:56;;;;;;;13.38;3.20;;;22.80;99.90;;;;;;5012758;28;20453;-77
2023/10/13 13:01:25;;;;;;;6.63;2.88;;;22.80;99.90;;;;;;5012079;28;20083;-77
2023/10/13 13:03:58;;;;;;;3.45;1.70;;;22.70;99.90;;;;;;5011821;28;20041;-77
2023/10/13 13:06:26;;;;;;;4.93;2.83;;;22.80;99.90;;;;;;5027144;28;20085;-77
2023/10/13 13:09:02;;;;;;;5.68;1.67;;;22.70;99.90;;;;;;5011839;28;20033;-77
2023/10/13 13:11:31;;;;;;;0.35;0.35;;;22.70;99.90;;;;;;5015320;28;20030;-77
2023/10/13 13:13:57;;;;;;;4.22;1.48;;;22.70;99.90;;;;;;5024068;28;20025;-77
2023/10/13 13:16:30;;;;;;;11.60;3.97;;;22.90;99.90;;;;;;5024999;28;20045;-77
2023/10/13 13:18:57;;;;;;;3.75;1.95;;;22.80;99.90;;;;;;5032899;28;20045;-76
2023/10/13 13:21:23;;;;;;;2.85;1.13;;;22.70;99.90;;;;;;5034405;28;20377;-76
2023/10/13 13:23:50;;;;;;;3.75;1.65;;;22.80;99.90;;;;;;5023385;28;20025;-76
2023/10/13 13:26:17;;;;;;;8.68;2.30;;;22.80;99.90;;;;;;5022972;28;20102;-76
2023/10/13 13:28:50;;;;;;;6.57;1.13;;;22.70;99.90;;;;;;5029079;28;20488;-76
2023/10/13 13:31:29;;;;;;;1.80;1.30;;;22.80;99.90;;;;;;5033950;28;20482;-76
2023/10/13 13:33:55;;;;;;;10.25;3.70;;;22.80;99.90;;;;;;5020590;28;20025;-76
2023/10/13 13:36:22;;;;;;;6.47;2.63;;;22.80;99.90;;;;;;5021321;28;20089;-76
2023/10/13 13:38:54;;;;;;;3.53;2.25;;;22.90;99.90;;;;;;5025765;28;20538;-76
2023/10/13 13:41:21;;;;;;;11.65;1.60;;;23.30;99.90;;;;;;5030539;28;20036;-77
2023/10/13 13:46:18;;;;;;;4.68;2.05;;;22.80;99.90;;;;;;5019477;28;20026;-76
2023/10/13 13:48:47;;;;;;;0.57;0.55;;;22.90;99.90;;;;;;5021993;28;20029;-76
2023/10/13 13:51:19;;;;;;;2.67;1.70;;;22.90;99.90;;;;;;5028755;28;20057;-76
2023/10/13 13:53:45;;;;;;;1.88;1.35;;;22.80;99.90;;;;;;5032339;28;20420;-77
2023/10/13 13:56:15;;;;;;;6.55;2.47;;;22.90;99.90;;;;;;5031156;28;20032;-76
2023/10/13 13:58:49;;;;;;;2.05;1.00;;;22.80;99.90;;;;;;5019465;28;20172;-76
2023/10/13 14:01:18;;;;;;;9.35;3.20;;;23.00;99.90;;;;;;5027405;28;20087;-76
2023/10/13 14:03:46;;;;;;;4.15;0.98;;;23.10;99.90;;;;;;5033318;28;20123;-78
2023/10/13 14:06:24;;;;;;;1.00;0.90;;;22.80;99.90;;;;;;5035168;28;20351;-76
2023/10/13 14:09:14;;;;;;;4.25;1.85;;;22.80;99.90;;;;;;5035670;28;20037;-76
2023/10/13 14:16:50;;;;;;;3.47;2.38;;;22.70;99.90;;;;;;5035387;28;20025;-77
2023/10/13 14:19:29;;;;;;;1.38;0.88;;;22.70;99.90;;;;;;5035480;28;20033;-77
2023/10/13 14:21:58;;;;;;;4.35;1.55;;;22.70;99.90;;;;;;5034039;28;20030;-76
2023/10/13 14:24:32;;;;;;;2.72;2.35;;;22.40;99.90;;;;;;5034411;28;20108;-76
2023/10/13 14:27:08;;;;;;;2.63;1.42;;;22.40;99.90;;;;;;5034737;28;20025;-76
2023/10/13 14:29:40;;;;;;;6.28;2.30;;;22.40;99.90;;;;;;5035298;28;20040;-76
2023/10/13 14:32:14;;;;;;;11.20;2.40;;;22.30;99.90;;;;;;5035520;28;20034;-77
2023/10/13 14:34:53;;;;;;;1.95;1.40;;;22.20;99.90;;;;;;5033780;28;20037;-76
2023/10/13 14:37:26;;;;;;;2.50;1.75;;;22.10;99.90;;;;;;5035199;28;20046;-76
2023/10/13 14:39:58;;;;;;;13.20;1.42;;;22.20;99.90;;;;;;5034881;28;20553;-76
2023/10/13 14:42:27;;;;;;;1.08;0.75;;;22.10;99.90;;;;;;5035099;28;20389;-75
2023/10/13 14:44:56;;;;;;;4.35;1.17;;;22.20;99.90;;;;;;5035140;28;20061;-76
2023/10/13 14:47:24;;;;;;;5.18;1.88;;;22.10;99.90;;;;;;5034936;28;20079;-76
2023/10/13 14:50:03;;;;;;;1.63;1.20;;;22.00;99.90;;;;;;5033753;28;20029;-76
2023/10/13 14:52:32;;;;;;;0.55;0.55;;;21.90;99.90;;;;;;5034906;28;20482;-76
2023/10/13 14:54:58;;;;;;;1.50;0.50;;;21.90;99.90;;;;;;5034596;28;20080;-76
2023/10/13 14:57:24;;;;;;;3.65;1.48;;;21.80;99.90;;;;;;5034822;28;20037;-76
2023/10/13 14:59:54;;;;;;;2.67;2.00;;;21.90;99.90;;;;;;5034619;28;20025;-76
2023/10/13 15:02:21;;;;;;;1.42;0.30;;;22.00;99.90;;;;;;5021777;28;20026;-76
2023/10/13 15:04:50;;;;;;;0.57;0.57;;;22.00;99.90;;;;;;5009041;28;20030;-77
2023/10/13 15:07:22;;;;;;;3.22;1.73;;;22.00;99.90;;;;;;5014296;28;20026;-76
2023/10/13 15:09:48;;;;;;;3.28;2.60;;;21.90;99.90;;;;;;5013758;28;20073;-76
2023/10/13 15:12:13;;;;;;;0.32;0.30;;;22.00;99.90;;;;;;5017248;28;20244;-76
2023/10/13 15:14:42;;;;;;;7.28;1.50;;;22.00;99.90;;;;;;5017911;28;20034;-76
2023/10/13 15:17:09;;;;;;;2.10;0.80;;;21.90;99.90;;;;;;5012056;28;20124;-76
2023/10/13 15:19:38;;;;;;;2.08;1.08;;;21.90;99.90;;;;;;5029530;28;20099;-76
2023/10/13 15:22:06;;;;;;;11.80;3.38;;;22.00;99.90;;;;;;5027853;28;20118;-77
2023/10/13 15:24:42;;;;;;;7.60;1.95;;;21.90;99.90;;;;;;5016331;28;20026;-76
2023/10/13 15:27:08;;;;;;;7.13;2.40;;;22.00;99.90;;;;;;5024077;28;20504;-77
2023/10/13 15:29:37;;;;;;;1.10;1.00;;;22.00;99.90;;;;;;5017758;28;20033;-76
2023/10/13 15:34:41;;;;;;;12.35;2.00;;;21.90;99.90;;;;;;5018974;28;20084;-76
2023/10/13 15:37:06;;;;;;;0.43;0.30;;;21.90;99.90;;;;;;5020251;28;20463;-76
2023/10/13 15:39:32;;;;;;;2.55;0.90;;;22.00;99.90;;;;;;5024788;28;20029;-76
2023/10/13 15:41:58;;;;;;;3.80;1.75;;;21.80;99.90;;;;;;5026077;28;20386;-76
2023/10/13 15:44:30;;;;;;;6.55;1.80;;;21.90;99.90;;;;;;5026973;28;20409;-76
2023/10/13 15:46:57;;;;;;;1.58;1.48;;;21.80;99.90;;;;;;5015983;28;20076;-76
2023/10/13 15:49:23;;;;;;;11.48;1.98;;;21.80;99.90;;;;;;5024097;28;20028;-76
2023/10/13 15:51:49;;;;;;;5.63;2.20;;;21.70;99.90;;;;;;5024897;28;20382;-78
2023/10/13 15:54:17;;;;;;;1.77;1.15;;;21.70;99.90;;;;;;5029522;28;20025;-76
2023/10/13 15:56:47;;;;;;;7.82;1.75;;;21.60;99.90;;;;;;5023843;28;20030;-76
2023/10/13 15:59:14;;;;;;;2.30;1.15;;;21.70;99.90;;;;;;5019468;28;20038;-76
2023/10/13 16:01:40;;;;;;;2.08;1.52;;;21.70;99.90;;;;;;5023108;28;20104;-76
2023/10/13 16:04:13;;;;;;;4.03;0.75;;;21.60;99.90;;;;;;5016765;28;20030;-76
2023/10/13 16:06:46;;;;;;;0.28;0.28;;;21.60;99.90;;;;;;5026956;28;20580;-76
2023/10/13 16:09:19;;;;;;;14.85;1.67;;;21.60;99.90;;;;;;5029805;28;20526;-76
2023/10/13 16:11:46;;;;;;;4.45;1.27;;;21.60;99.90;;;;;;5033284;28;20064;-76
2023/10/13 16:14:15;;;;;;;6.88;1.15;;;21.70;99.90;;;;;;5032147;28;20104;-76
2023/10/13 16:16:46;;;;;;;5.85;2.55;;;21.80;99.90;;;;;;5031684;28;20029;-76
2023/10/13 16:19:23;;;;;;;4.88;1.58;;;21.70;99.90;;;;;;5033222;28;20068;-76
2023/10/13 16:21:50;;;;;;;1.80;0.93;;;21.50;99.90;;;;;;5032793;28;20026;-76
2023/10/13 16:24:19;;;;;;;1.92;1.35;;;21.40;99.90;;;;;;5033338;28;20032;-76
2023/10/13 16:26:49;;;;;;;3.67;1.73;;;21.20;99.90;;;;;;5033022;28;20017;-76
2023/10/13 16:29:16;;;;;;;1.42;1.20;;;21.00;99.90;;;;;;5033263;28;20033;-76
2023/10/13 16:31:45;;;;;;;11.90;3.47;;;20.90;99.90;;;;;;5032601;28;20041;-76
2023/10/13 16:34:15;;;;;;;2.65;1.33;;;20.70;99.90;;;;;;5031869;28;20083;-76
2023/10/13 16:36:43;;;;;;;4.53;1.88;;;20.70;99.90;;;;;;5032460;28;20075;-77
2023/10/13 16:39:10;;;;;;;2.85;1.58;;;20.70;99.90;;;;;;5031748;28;20036;-77
2023/10/13 16:41:36;;;;;;;2.55;1.90;;;20.70;99.90;;;;;;5031439;28;20037;-76
2023/10/13 16:44:09;;;;;;;7.68;2.80;;;20.60;99.90;;;;;;5031424;28;20101;-77
2023/10/13 16:46:36;;;;;;;3.42;1.98;;;20.50;99.90;;;;;;5032417;28;20162;-77